Foshan, China
Current Conditions -  °F | °C
As of 4:30 PM on Saturday 22 Nov 2014 (Local Time) from ZGGG Reporting Station
Scattered Clouds Scattered Clouds  
Wind Chill: 81°   Ceiling: Unl
Heat Index: 81°   Visibility: 6mi
Dew Point: 59°   Wind: 2mph
Humidity: 48%   Direction: NA
Pressure: 29.94"   Gusts: NA
Location:  23.03°N, 113.12°E
Report Text: ZGGG 220830Z VRB01MPS 9999 SCT060 27/15 Q1014 NOSIG
Loading
Personal Weather Stations






























Interactive Weather Map New forecast layout! Learn more

10-Day Weather Forecast

Advertisements
Track Severe Weather on mobile